sensor_id;sensor_type;location;lat;lon;timestamp;temperature;humidity
48946;DHT22;34999;50.940;3.998;2024-03-06T00:00:04;5.80;99.90
48946;DHT22;34999;50.940;3.998;2024-03-06T00:02:34;5.70;99.90
48946;DHT22;34999;50.940;3.998;2024-03-06T00:05:03;5.70;99.90
48946;DHT22;34999;50.940;3.998;2024-03-06T00:07:31;5.70;99.90
48946;DHT22;34999;50.940;3.998;2024-03-06T00:10:00;5.80;99.90
48946;DHT22;34999;50.940;3.998;2024-03-06T00:12:28;5.80;99.90
48946;DHT22;34999;50.940;3.998;2024-03-06T00:14:58;5.80;99.90
48946;DHT22;34999;50.940;3.998;2024-03-06T00:17:26;5.70;99.90
48946;DHT22;34999;50.940;3.998;2024-03-06T00:19:54;5.70;99.90
48946;DHT22;34999;50.940;3.998;2024-03-06T00:22:23;5.70;99.90
48946;DHT22;34999;50.940;3.998;2024-03-06T00:24:51;5.70;99.90
48946;DHT22;34999;50.940;3.998;2024-03-06T00:27:19;5.70;99.90
48946;DHT22;34999;50.940;3.998;2024-03-06T00:29:48;5.80;99.90
48946;DHT22;34999;50.940;3.998;2024-03-06T00:32:18;5.70;99.90
48946;DHT22;34999;50.940;3.998;2024-03-06T00:34:46;5.70;99.90
48946;DHT22;34999;50.940;3.998;2024-03-06T00:37:14;5.70;99.90
48946;DHT22;34999;50.940;3.998;2024-03-06T00:39:43;5.60;99.90
48946;DHT22;34999;50.940;3.998;2024-03-06T00:42:11;5.60;99.90
48946;DHT22;34999;50.940;3.998;2024-03-06T00:44:41;5.60;99.90
48946;DHT22;34999;50.940;3.998;2024-03-06T00:47:09;5.60;99.90
48946;DHT22;34999;50.940;3.998;2024-03-06T00:49:39;5.60;99.90
48946;DHT22;34999;50.940;3.998;2024-03-06T00:52:09;5.50;99.90
48946;DHT22;34999;50.940;3.998;2024-03-06T00:54:37;5.50;99.90
48946;DHT22;34999;50.940;3.998;2024-03-06T00:57:05;5.50;99.90
48946;DHT22;34999;50.940;3.998;2024-03-06T00:59:34;5.50;99.90
48946;DHT22;34999;50.940;3.998;2024-03-06T01:02:02;5.50;99.90
48946;DHT22;34999;50.940;3.998;2024-03-06T01:04:30;5.40;99.90
48946;DHT22;34999;50.940;3.998;2024-03-06T01:07:00;5.40;99.90
48946;DHT22;34999;50.940;3.998;2024-03-06T01:09:28;5.30;99.90
48946;DHT22;34999;50.940;3.998;2024-03-06T01:11:57;5.30;99.90
48946;DHT22;34999;50.940;3.998;2024-03-06T01:14:25;5.20;99.90
48946;DHT22;34999;50.940;3.998;2024-03-06T01:16:53;5.20;99.90
48946;DHT22;34999;50.940;3.998;2024-03-06T01:19:23;5.20;99.90
48946;DHT22;34999;50.940;3.998;2024-03-06T01:21:51;5.10;99.90
48946;DHT22;34999;50.940;3.998;2024-03-06T01:24:21;5.00;99.90
48946;DHT22;34999;50.940;3.998;2024-03-06T01:26:49;5.00;99.90
48946;DHT22;34999;50.940;3.998;2024-03-06T01:29:17;4.90;99.90
48946;DHT22;34999;50.940;3.998;2024-03-06T01:31:46;4.90;99.90
48946;DHT22;34999;50.940;3.998;2024-03-06T01:34:14;4.90;99.90
48946;DHT22;34999;50.940;3.998;2024-03-06T01:36:43;4.90;99.90
48946;DHT22;34999;50.940;3.998;2024-03-06T01:39:11;4.80;99.90
48946;DHT22;34999;50.940;3.998;2024-03-06T01:41:46;4.80;99.90
48946;DHT22;34999;50.940;3.998;2024-03-06T01:44:15;4.70;99.90
48946;DHT22;34999;50.940;3.998;2024-03-06T01:46:44;4.60;99.90
48946;DHT22;34999;50.940;3.998;2024-03-06T01:49:15;4.60;99.90
48946;DHT22;34999;50.940;3.998;2024-03-06T01:51:56;4.50;99.90
48946;DHT22;34999;50.940;3.998;2024-03-06T01:54:25;4.40;99.90
48946;DHT22;34999;50.940;3.998;2024-03-06T01:56:55;4.40;99.90
48946;DHT22;34999;50.940;3.998;2024-03-06T01:59:25;4.30;99.90
48946;DHT22;34999;50.940;3.998;2024-03-06T02:02:03;4.30;99.90
48946;DHT22;34999;50.940;3.998;2024-03-06T02:04:32;4.30;99.90
48946;DHT22;34999;50.940;3.998;2024-03-06T02:07:04;4.20;99.90
48946;DHT22;34999;50.940;3.998;2024-03-06T02:09:37;4.20;99.90
48946;DHT22;34999;50.940;3.998;2024-03-06T02:12:07;4.10;99.90
48946;DHT22;34999;50.940;3.998;2024-03-06T02:14:36;4.10;99.90
48946;DHT22;34999;50.940;3.998;2024-03-06T02:17:05;4.10;99.90
48946;DHT22;34999;50.940;3.998;2024-03-06T02:19:40;4.10;99.90
48946;DHT22;34999;50.940;3.998;2024-03-06T02:22:11;4.10;99.90
48946;DHT22;34999;50.940;3.998;2024-03-06T02:24:44;4.10;99.90
48946;DHT22;34999;50.940;3.998;2024-03-06T02:27:13;4.10;99.90
48946;DHT22;34999;50.940;3.998;2024-03-06T02:29:41;4.00;99.90
48946;DHT22;34999;50.940;3.998;2024-03-06T02:32:11;3.90;99.90
48946;DHT22;34999;50.940;3.998;2024-03-06T02:34:40;3.90;99.90
48946;DHT22;34999;50.940;3.998;2024-03-06T02:37:10;3.90;99.90
48946;DHT22;34999;50.940;3.998;2024-03-06T02:39:38;3.80;99.90
48946;DHT22;34999;50.940;3.998;2024-03-06T02:42:07;3.80;99.90
48946;DHT22;34999;50.940;3.998;2024-03-06T02:44:35;3.70;99.90
48946;DHT22;34999;50.940;3.998;2024-03-06T02:47:04;3.70;99.90
48946;DHT22;34999;50.940;3.998;2024-03-06T02:49:32;3.70;99.90
48946;DHT22;34999;50.940;3.998;2024-03-06T02:52:00;3.70;99.90
48946;DHT22;34999;50.940;3.998;2024-03-06T02:54:30;3.60;99.90
48946;DHT22;34999;50.940;3.998;2024-03-06T02:56:58;3.60;99.90
48946;DHT22;34999;50.940;3.998;2024-03-06T02:59:27;3.50;99.90
48946;DHT22;34999;50.940;3.998;2024-03-06T03:01:55;3.50;99.90
48946;DHT22;34999;50.940;3.998;2024-03-06T03:04:23;3.40;99.90
48946;DHT22;34999;50.940;3.998;2024-03-06T03:06:52;3.40;99.90
48946;DHT22;34999;50.940;3.998;2024-03-06T03:09:20;3.30;99.90
48946;DHT22;34999;50.940;3.998;2024-03-06T03:11:50;3.20;99.90
48946;DHT22;34999;50.940;3.998;2024-03-06T03:14:18;3.10;99.90
48946;DHT22;34999;50.940;3.998;2024-03-06T03:16:46;3.10;99.90
48946;DHT22;34999;50.940;3.998;2024-03-06T03:19:15;3.10;99.90
48946;DHT22;34999;50.940;3.998;2024-03-06T03:21:44;3.10;99.90
48946;DHT22;34999;50.940;3.998;2024-03-06T03:24:12;3.10;99.90
48946;DHT22;34999;50.940;3.998;2024-03-06T03:26:40;3.10;99.90
48946;DHT22;34999;50.940;3.998;2024-03-06T03:29:10;3.10;99.90
48946;DHT22;34999;50.940;3.998;2024-03-06T03:31:39;3.10;99.90
48946;DHT22;34999;50.940;3.998;2024-03-06T03:34:07;3.10;99.90
48946;DHT22;34999;50.940;3.998;2024-03-06T03:36:40;3.10;99.90
48946;DHT22;34999;50.940;3.998;2024-03-06T03:39:09;3.20;99.90
48946;DHT22;34999;50.940;3.998;2024-03-06T03:41:43;3.10;99.90
48946;DHT22;34999;50.940;3.998;2024-03-06T03:44:14;3.10;99.90
48946;DHT22;34999;50.940;3.998;2024-03-06T03:46:43;3.20;99.90
48946;DHT22;34999;50.940;3.998;2024-03-06T03:49:12;3.10;99.90
48946;DHT22;34999;50.940;3.998;2024-03-06T03:51:40;3.00;99.90
48946;DHT22;34999;50.940;3.998;2024-03-06T03:54:09;2.90;99.90
48946;DHT22;34999;50.940;3.998;2024-03-06T03:56:37;2.80;99.90
48946;DHT22;34999;50.940;3.998;2024-03-06T03:59:05;2.80;99.90
48946;DHT22;34999;50.940;3.998;2024-03-06T04:01:36;2.80;99.90
48946;DHT22;34999;50.940;3.998;2024-03-06T04:04:05;2.70;99.90
48946;DHT22;34999;50.940;3.998;2024-03-06T04:06:34;2.60;99.90
48946;DHT22;34999;50.940;3.998;2024-03-06T04:09:02;2.60;99.90
48946;DHT22;34999;50.940;3.998;2024-03-06T04:11:31;2.60;99.90
48946;DHT22;34999;50.940;3.998;2024-03-06T04:14:01;2.50;99.90
48946;DHT22;34999;50.940;3.998;2024-03-06T04:16:30;2.50;99.90
48946;DHT22;34999;50.940;3.998;2024-03-06T04:19:01;2.50;99.90
48946;DHT22;34999;50.940;3.998;2024-03-06T04:21:30;2.50;99.90
48946;DHT22;34999;50.940;3.998;2024-03-06T04:23:58;2.40;99.90
48946;DHT22;34999;50.940;3.998;2024-03-06T04:26:27;2.40;99.90
48946;DHT22;34999;50.940;3.998;2024-03-06T04:28:55;2.40;99.90
48946;DHT22;34999;50.940;3.998;2024-03-06T04:31:23;2.30;99.90
48946;DHT22;34999;50.940;3.998;2024-03-06T04:33:51;2.30;99.90
48946;DHT22;34999;50.940;3.998;2024-03-06T04:36:21;2.20;99.90
48946;DHT22;34999;50.940;3.998;2024-03-06T04:38:49;2.10;99.90
48946;DHT22;34999;50.940;3.998;2024-03-06T04:41:18;2.10;99.90
48946;DHT22;34999;50.940;3.998;2024-03-06T04:43:47;2.10;99.90
48946;DHT22;34999;50.940;3.998;2024-03-06T04:46:18;2.00;99.90
48946;DHT22;34999;50.940;3.998;2024-03-06T04:48:46;2.10;99.90
48946;DHT22;34999;50.940;3.998;2024-03-06T04:51:15;2.10;99.90
48946;DHT22;34999;50.940;3.998;2024-03-06T04:53:48;2.00;99.90
48946;DHT22;34999;50.940;3.998;2024-03-06T04:56:16;2.00;99.90
48946;DHT22;34999;50.940;3.998;2024-03-06T04:58:46;2.00;99.90
48946;DHT22;34999;50.940;3.998;2024-03-06T05:01:14;1.90;99.90
48946;DHT22;34999;50.940;3.998;2024-03-06T05:03:42;1.90;99.90
48946;DHT22;34999;50.940;3.998;2024-03-06T05:06:31;1.90;99.90
48946;DHT22;34999;50.940;3.998;2024-03-06T05:09:19;1.90;99.90
48946;DHT22;34999;50.940;3.998;2024-03-06T05:12:05;1.80;99.90
48946;DHT22;34999;50.940;3.998;2024-03-06T05:14:52;2.00;99.90
48946;DHT22;34999;50.940;3.998;2024-03-06T05:17:38;1.90;99.90
48946;DHT22;34999;50.940;3.998;2024-03-06T05:20:23;1.90;99.90
48946;DHT22;34999;50.940;3.998;2024-03-06T05:23:09;1.90;99.90
48946;DHT22;34999;50.940;3.998;2024-03-06T05:25:57;2.00;99.90
48946;DHT22;34999;50.940;3.998;2024-03-06T05:28:42;1.90;99.90
48946;DHT22;34999;50.940;3.998;2024-03-06T05:31:28;1.90;99.90
48946;DHT22;34999;50.940;3.998;2024-03-06T05:34:14;1.90;99.90
48946;DHT22;34999;50.940;3.998;2024-03-06T05:37:00;2.00;99.90
48946;DHT22;34999;50.940;3.998;2024-03-06T05:39:48;2.00;99.90
48946;DHT22;34999;50.940;3.998;2024-03-06T05:42:35;2.00;99.90
48946;DHT22;34999;50.940;3.998;2024-03-06T05:45:21;2.10;99.90
48946;DHT22;34999;50.940;3.998;2024-03-06T05:48:10;2.10;99.90
48946;DHT22;34999;50.940;3.998;2024-03-06T05:50:56;2.10;99.90
48946;DHT22;34999;50.940;3.998;2024-03-06T05:53:41;2.10;99.90
48946;DHT22;34999;50.940;3.998;2024-03-06T05:56:28;2.00;99.90
48946;DHT22;34999;50.940;3.998;2024-03-06T05:59:15;2.00;99.90
48946;DHT22;34999;50.940;3.998;2024-03-06T06:01:43;2.00;99.90
48946;DHT22;34999;50.940;3.998;2024-03-06T06:04:11;2.00;99.90
48946;DHT22;34999;50.940;3.998;2024-03-06T06:06:41;2.00;99.90
48946;DHT22;34999;50.940;3.998;2024-03-06T06:09:09;2.00;99.90
48946;DHT22;34999;50.940;3.998;2024-03-06T06:11:43;2.00;99.90
48946;DHT22;34999;50.940;3.998;2024-03-06T06:14:11;2.10;99.90
48946;DHT22;34999;50.940;3.998;2024-03-06T06:16:42;2.10;99.90
48946;DHT22;34999;50.940;3.998;2024-03-06T06:19:10;2.10;99.90
48946;DHT22;34999;50.940;3.998;2024-03-06T06:21:38;2.10;99.90
48946;DHT22;34999;50.940;3.998;2024-03-06T06:24:07;2.00;99.90
48946;DHT22;34999;50.940;3.998;2024-03-06T06:26:36;2.00;99.90
48946;DHT22;34999;50.940;3.998;2024-03-06T06:29:04;2.00;99.90
48946;DHT22;34999;50.940;3.998;2024-03-06T06:31:33;2.00;99.90
48946;DHT22;34999;50.940;3.998;2024-03-06T06:34:02;2.00;99.90
48946;DHT22;34999;50.940;3.998;2024-03-06T06:36:31;2.00;99.90
48946;DHT22;34999;50.940;3.998;2024-03-06T06:38:59;2.00;99.90
48946;DHT22;34999;50.940;3.998;2024-03-06T06:41:31;2.10;99.90
48946;DHT22;34999;50.940;3.998;2024-03-06T06:44:00;2.10;99.90
48946;DHT22;34999;50.940;3.998;2024-03-06T06:46:29;2.10;99.90
48946;DHT22;34999;50.940;3.998;2024-03-06T06:48:58;2.20;99.90
48946;DHT22;34999;50.940;3.998;2024-03-06T06:51:28;2.20;99.90
48946;DHT22;34999;50.940;3.998;2024-03-06T06:53:56;2.30;99.90
48946;DHT22;34999;50.940;3.998;2024-03-06T06:56:27;2.40;99.90
48946;DHT22;34999;50.940;3.998;2024-03-06T06:58:56;2.50;99.90
48946;DHT22;34999;50.940;3.998;2024-03-06T07:01:24;2.60;99.90
48946;DHT22;34999;50.940;3.998;2024-03-06T07:03:54;2.70;99.90
48946;DHT22;34999;50.940;3.998;2024-03-06T07:06:22;2.90;99.90
48946;DHT22;34999;50.940;3.998;2024-03-06T07:08:52;3.00;99.90
48946;DHT22;34999;50.940;3.998;2024-03-06T07:11:21;3.20;99.90
48946;DHT22;34999;50.940;3.998;2024-03-06T07:13:49;3.30;99.90
48946;DHT22;34999;50.940;3.998;2024-03-06T07:16:18;3.50;99.90
48946;DHT22;34999;50.940;3.998;2024-03-06T07:18:46;3.50;99.90
48946;DHT22;34999;50.940;3.998;2024-03-06T07:21:14;3.60;99.90
48946;DHT22;34999;50.940;3.998;2024-03-06T07:23:44;3.70;99.90
48946;DHT22;34999;50.940;3.998;2024-03-06T07:26:14;3.70;99.90
48946;DHT22;34999;50.940;3.998;2024-03-06T07:28:43;3.80;99.90
48946;DHT22;34999;50.940;3.998;2024-03-06T07:31:11;3.90;99.90
48946;DHT22;34999;50.940;3.998;2024-03-06T07:33:39;4.00;99.90
48946;DHT22;34999;50.940;3.998;2024-03-06T07:36:08;4.20;99.90
48946;DHT22;34999;50.940;3.998;2024-03-06T07:38:37;4.50;99.90
48946;DHT22;34999;50.940;3.998;2024-03-06T07:41:05;5.20;99.90
48946;DHT22;34999;50.940;3.998;2024-03-06T07:43:35;6.00;99.90
48946;DHT22;34999;50.940;3.998;2024-03-06T07:46:05;6.60;99.90
48946;DHT22;34999;50.940;3.998;2024-03-06T07:48:38;7.10;99.90
48946;DHT22;34999;50.940;3.998;2024-03-06T07:51:07;7.30;99.90
48946;DHT22;34999;50.940;3.998;2024-03-06T07:53:35;7.70;99.90
48946;DHT22;34999;50.940;3.998;2024-03-06T07:56:04;8.00;99.90
48946;DHT22;34999;50.940;3.998;2024-03-06T07:58:36;8.10;99.90
48946;DHT22;34999;50.940;3.998;2024-03-06T08:01:04;8.40;99.90
48946;DHT22;34999;50.940;3.998;2024-03-06T08:03:34;8.70;99.90
48946;DHT22;34999;50.940;3.998;2024-03-06T08:06:03;8.90;99.90
48946;DHT22;34999;50.940;3.998;2024-03-06T08:08:31;9.20;99.90
48946;DHT22;34999;50.940;3.998;2024-03-06T08:10:59;9.50;99.90
48946;DHT22;34999;50.940;3.998;2024-03-06T08:13:28;9.80;99.90
48946;DHT22;34999;50.940;3.998;2024-03-06T08:15:58;10.10;99.90
48946;DHT22;34999;50.940;3.998;2024-03-06T08:18:26;10.40;99.90
48946;DHT22;34999;50.940;3.998;2024-03-06T08:20:55;10.90;99.90
48946;DHT22;34999;50.940;3.998;2024-03-06T08:23:23;11.10;99.90
48946;DHT22;34999;50.940;3.998;2024-03-06T08:25:52;11.10;99.90
48946;DHT22;34999;50.940;3.998;2024-03-06T08:28:20;11.30;99.90
48946;DHT22;34999;50.940;3.998;2024-03-06T08:30:48;11.50;99.90
48946;DHT22;34999;50.940;3.998;2024-03-06T08:33:19;11.60;99.90
48946;DHT22;34999;50.940;3.998;2024-03-06T08:35:50;11.60;99.90
48946;DHT22;34999;50.940;3.998;2024-03-06T08:38:18;11.50;99.90
48946;DHT22;34999;50.940;3.998;2024-03-06T08:40:47;11.30;99.90
48946;DHT22;34999;50.940;3.998;2024-03-06T08:43:16;11.20;99.90
48946;DHT22;34999;50.940;3.998;2024-03-06T08:45:46;11.10;99.90
48946;DHT22;34999;50.940;3.998;2024-03-06T08:48:14;11.20;99.90
48946;DHT22;34999;50.940;3.998;2024-03-06T08:50:44;11.00;99.90
48946;DHT22;34999;50.940;3.998;2024-03-06T08:53:12;11.00;99.90
48946;DHT22;34999;50.940;3.998;2024-03-06T08:55:42;11.00;99.90
48946;DHT22;34999;50.940;3.998;2024-03-06T08:58:10;11.00;99.90
48946;DHT22;34999;50.940;3.998;2024-03-06T09:00:40;11.20;99.90
48946;DHT22;34999;50.940;3.998;2024-03-06T09:03:09;11.20;99.90
48946;DHT22;34999;50.940;3.998;2024-03-06T09:05:37;11.30;99.90
48946;DHT22;34999;50.940;3.998;2024-03-06T09:08:07;11.40;99.90
48946;DHT22;34999;50.940;3.998;2024-03-06T09:10:36;11.40;99.90
48946;DHT22;34999;50.940;3.998;2024-03-06T09:13:05;11.60;99.90
48946;DHT22;34999;50.940;3.998;2024-03-06T09:15:33;11.70;99.90
48946;DHT22;34999;50.940;3.998;2024-03-06T09:18:01;11.80;99.90
48946;DHT22;34999;50.940;3.998;2024-03-06T09:20:30;11.80;99.90
48946;DHT22;34999;50.940;3.998;2024-03-06T09:22:59;11.80;99.90
48946;DHT22;34999;50.940;3.998;2024-03-06T09:25:29;11.80;99.90
48946;DHT22;34999;50.940;3.998;2024-03-06T09:27:57;11.90;99.90
48946;DHT22;34999;50.940;3.998;2024-03-06T09:30:26;12.00;99.90
48946;DHT22;34999;50.940;3.998;2024-03-06T09:32:55;12.00;99.90
48946;DHT22;34999;50.940;3.998;2024-03-06T09:35:24;12.00;99.90
48946;DHT22;34999;50.940;3.998;2024-03-06T09:37:52;12.00;99.90
48946;DHT22;34999;50.940;3.998;2024-03-06T09:40:22;12.10;99.90
48946;DHT22;34999;50.940;3.998;2024-03-06T09:42:52;12.30;99.90
48946;DHT22;34999;50.940;3.998;2024-03-06T09:45:21;12.40;99.90
48946;DHT22;34999;50.940;3.998;2024-03-06T09:47:50;12.70;99.90
48946;DHT22;34999;50.940;3.998;2024-03-06T09:50:23;12.80;99.90
48946;DHT22;34999;50.940;3.998;2024-03-06T09:52:55;13.10;99.90
48946;DHT22;34999;50.940;3.998;2024-03-06T09:55:25;13.30;99.90
48946;DHT22;34999;50.940;3.998;2024-03-06T09:57:56;13.50;99.90
48946;DHT22;34999;50.940;3.998;2024-03-06T10:00:24;13.60;99.90
48946;DHT22;34999;50.940;3.998;2024-03-06T10:02:57;13.70;99.90
48946;DHT22;34999;50.940;3.998;2024-03-06T10:05:27;13.90;99.90
48946;DHT22;34999;50.940;3.998;2024-03-06T10:07:56;14.20;99.90
48946;DHT22;34999;50.940;3.998;2024-03-06T10:10:26;14.50;99.90
48946;DHT22;34999;50.940;3.998;2024-03-06T10:12:56;14.80;99.90
48946;DHT22;34999;50.940;3.998;2024-03-06T10:15:29;14.80;99.90
48946;DHT22;34999;50.940;3.998;2024-03-06T10:18:16;14.90;99.90
48946;DHT22;34999;50.940;3.998;2024-03-06T10:20:46;15.00;99.90
48946;DHT22;34999;50.940;3.998;2024-03-06T10:23:15;15.10;99.90
48946;DHT22;34999;50.940;3.998;2024-03-06T10:25:47;15.30;99.90
48946;DHT22;34999;50.940;3.998;2024-03-06T10:28:20;15.50;99.90
48946;DHT22;34999;50.940;3.998;2024-03-06T10:30:50;15.50;99.90
48946;DHT22;34999;50.940;3.998;2024-03-06T10:33:19;15.70;99.90
48946;DHT22;34999;50.940;3.998;2024-03-06T10:35:48;15.80;99.90
48946;DHT22;34999;50.940;3.998;2024-03-06T10:38:20;16.10;99.90
48946;DHT22;34999;50.940;3.998;2024-03-06T10:40:51;16.30;99.90
48946;DHT22;34999;50.940;3.998;2024-03-06T10:43:21;16.40;99.90
48946;DHT22;34999;50.940;3.998;2024-03-06T10:45:55;15.80;99.90
48946;DHT22;34999;50.940;3.998;2024-03-06T10:48:28;15.40;99.90
48946;DHT22;34999;50.940;3.998;2024-03-06T10:50:57;14.50;99.90
48946;DHT22;34999;50.940;3.998;2024-03-06T10:53:28;14.10;99.90
48946;DHT22;34999;50.940;3.998;2024-03-06T10:55:58;13.90;99.90
48946;DHT22;34999;50.940;3.998;2024-03-06T10:58:29;13.70;99.90
48946;DHT22;34999;50.940;3.998;2024-03-06T11:00:58;13.50;99.90
48946;DHT22;34999;50.940;3.998;2024-03-06T11:03:27;13.40;99.90
48946;DHT22;34999;50.940;3.998;2024-03-06T11:05:57;13.20;99.90
48946;DHT22;34999;50.940;3.998;2024-03-06T11:08:30;12.80;1.00
48946;DHT22;34999;50.940;3.998;2024-03-06T11:11:22;12.90;1.00
48946;DHT22;34999;50.940;3.998;2024-03-06T11:13:54;13.30;1.00
48946;DHT22;34999;50.940;3.998;2024-03-06T11:16:29;13.20;99.90
48946;DHT22;34999;50.940;3.998;2024-03-06T11:19:07;13.40;1.00
48946;DHT22;34999;50.940;3.998;2024-03-06T11:21:45;14.40;99.90
48946;DHT22;34999;50.940;3.998;2024-03-06T11:24:17;15.50;99.90
48946;DHT22;34999;50.940;3.998;2024-03-06T11:26:54;16.30;99.90
48946;DHT22;34999;50.940;3.998;2024-03-06T11:29:27;16.50;1.00
48946;DHT22;34999;50.940;3.998;2024-03-06T11:32:00;16.20;1.00
48946;DHT22;34999;50.940;3.998;2024-03-06T11:34:28;16.10;1.00
48946;DHT22;34999;50.940;3.998;2024-03-06T11:36:57;16.60;1.00
48946;DHT22;34999;50.940;3.998;2024-03-06T11:39:32;16.70;97.10
48946;DHT22;34999;50.940;3.998;2024-03-06T11:42:04;16.20;1.00
48946;DHT22;34999;50.940;3.998;2024-03-06T11:44:37;15.70;1.00
48946;DHT22;34999;50.940;3.998;2024-03-06T11:47:20;15.30;1.00
48946;DHT22;34999;50.940;3.998;2024-03-06T11:49:49;14.80;1.00
48946;DHT22;34999;50.940;3.998;2024-03-06T11:52:18;14.20;1.00
48946;DHT22;34999;50.940;3.998;2024-03-06T11:54:46;13.90;99.90
48946;DHT22;34999;50.940;3.998;2024-03-06T11:57:14;13.50;1.00
48946;DHT22;34999;50.940;3.998;2024-03-06T11:59:44;13.30;1.00
48946;DHT22;34999;50.940;3.998;2024-03-06T12:02:13;13.90;1.00
48946;DHT22;34999;50.940;3.998;2024-03-06T12:04:41;14.80;1.00
48946;DHT22;34999;50.940;3.998;2024-03-06T12:07:10;15.10;92.70
48946;DHT22;34999;50.940;3.998;2024-03-06T12:09:38;15.60;99.90
48946;DHT22;34999;50.940;3.998;2024-03-06T12:12:10;14.90;99.90
48946;DHT22;34999;50.940;3.998;2024-03-06T12:14:39;14.60;1.00
48946;DHT22;34999;50.940;3.998;2024-03-06T12:17:12;14.40;1.00
48946;DHT22;34999;50.940;3.998;2024-03-06T12:19:43;14.30;1.00
48946;DHT22;34999;50.940;3.998;2024-03-06T12:22:13;14.80;1.00
48946;DHT22;34999;50.940;3.998;2024-03-06T12:24:42;15.20;1.00
48946;DHT22;34999;50.940;3.998;2024-03-06T12:27:11;15.90;1.00
48946;DHT22;34999;50.940;3.998;2024-03-06T12:29:41;16.90;99.90
48946;DHT22;34999;50.940;3.998;2024-03-06T12:32:18;17.70;1.00
48946;DHT22;34999;50.940;3.998;2024-03-06T12:34:57;18.20;1.00
48946;DHT22;34999;50.940;3.998;2024-03-06T12:37:30;18.80;1.00
48946;DHT22;34999;50.940;3.998;2024-03-06T12:39:59;19.40;1.00
48946;DHT22;34999;50.940;3.998;2024-03-06T12:42:31;19.90;1.00
48946;DHT22;34999;50.940;3.998;2024-03-06T12:45:00;19.60;99.90
48946;DHT22;34999;50.940;3.998;2024-03-06T12:47:31;18.80;1.00
48946;DHT22;34999;50.940;3.998;2024-03-06T12:50:00;19.00;1.00
48946;DHT22;34999;50.940;3.998;2024-03-06T12:52:28;18.70;1.00
48946;DHT22;34999;50.940;3.998;2024-03-06T12:54:57;18.80;1.00
48946;DHT22;34999;50.940;3.998;2024-03-06T12:57:25;18.90;1.00
48946;DHT22;34999;50.940;3.998;2024-03-06T12:59:54;18.30;99.90
48946;DHT22;34999;50.940;3.998;2024-03-06T13:02:22;17.30;1.00
48946;DHT22;34999;50.940;3.998;2024-03-06T13:04:52;16.30;1.00
48946;DHT22;34999;50.940;3.998;2024-03-06T13:07:21;15.60;99.90
48946;DHT22;34999;50.940;3.998;2024-03-06T13:09:49;15.90;1.00
48946;DHT22;34999;50.940;3.998;2024-03-06T13:12:18;15.90;99.90
48946;DHT22;34999;50.940;3.998;2024-03-06T13:14:46;15.50;99.90
48946;DHT22;34999;50.940;3.998;2024-03-06T13:17:15;15.10;1.00
48946;DHT22;34999;50.940;3.998;2024-03-06T13:19:43;14.80;1.00
48946;DHT22;34999;50.940;3.998;2024-03-06T13:22:14;14.40;1.00
48946;DHT22;34999;50.940;3.998;2024-03-06T13:24:42;14.10;1.00
48946;DHT22;34999;50.940;3.998;2024-03-06T13:27:15;14.00;99.90
48946;DHT22;34999;50.940;3.998;2024-03-06T13:29:44;14.00;1.00
48946;DHT22;34999;50.940;3.998;2024-03-06T13:32:12;14.00;1.00
48946;DHT22;34999;50.940;3.998;2024-03-06T13:34:40;13.90;1.00
48946;DHT22;34999;50.940;3.998;2024-03-06T13:37:08;13.90;69.90
48946;DHT22;34999;50.940;3.998;2024-03-06T13:39:38;13.70;1.00
48946;DHT22;34999;50.940;3.998;2024-03-06T13:42:07;13.70;1.00
48946;DHT22;34999;50.940;3.998;2024-03-06T13:44:36;13.60;1.00
48946;DHT22;34999;50.940;3.998;2024-03-06T13:47:05;13.60;99.90
48946;DHT22;34999;50.940;3.998;2024-03-06T13:49:37;13.60;1.00
48946;DHT22;34999;50.940;3.998;2024-03-06T13:52:06;13.80;30.00
48946;DHT22;34999;50.940;3.998;2024-03-06T13:54:39;13.90;99.90
48946;DHT22;34999;50.940;3.998;2024-03-06T13:57:08;13.90;99.90
48946;DHT22;34999;50.940;3.998;2024-03-06T13:59:36;13.60;65.10
48946;DHT22;34999;50.940;3.998;2024-03-06T14:02:06;13.30;1.00
48946;DHT22;34999;50.940;3.998;2024-03-06T14:04:35;13.50;1.00
48946;DHT22;34999;50.940;3.998;2024-03-06T14:07:03;13.90;1.00
48946;DHT22;34999;50.940;3.998;2024-03-06T14:09:32;14.10;1.00
48946;DHT22;34999;50.940;3.998;2024-03-06T14:12:02;14.60;99.90
48946;DHT22;34999;50.940;3.998;2024-03-06T14:14:31;14.80;1.00
48946;DHT22;34999;50.940;3.998;2024-03-06T14:16:59;15.00;99.90
48946;DHT22;34999;50.940;3.998;2024-03-06T14:19:28;15.40;1.00
48946;DHT22;34999;50.940;3.998;2024-03-06T14:21:56;15.80;1.00
48946;DHT22;34999;50.940;3.998;2024-03-06T14:24:30;16.20;1.00
48946;DHT22;34999;50.940;3.998;2024-03-06T14:26:58;16.20;99.90
48946;DHT22;34999;50.940;3.998;2024-03-06T14:29:27;16.50;7.60
48946;DHT22;34999;50.940;3.998;2024-03-06T14:31:56;16.30;1.00
48946;DHT22;34999;50.940;3.998;2024-03-06T14:34:24;16.40;1.00
48946;DHT22;34999;50.940;3.998;2024-03-06T14:36:53;16.80;1.00
48946;DHT22;34999;50.940;3.998;2024-03-06T14:39:22;17.00;1.00
48946;DHT22;34999;50.940;3.998;2024-03-06T14:41:52;16.70;99.90
48946;DHT22;34999;50.940;3.998;2024-03-06T14:44:21;16.60;1.00
48946;DHT22;34999;50.940;3.998;2024-03-06T14:46:51;16.90;1.00
48946;DHT22;34999;50.940;3.998;2024-03-06T14:49:19;16.70;9.30
48946;DHT22;34999;50.940;3.998;2024-03-06T14:51:47;16.60;1.00
48946;DHT22;34999;50.940;3.998;2024-03-06T14:54:16;17.00;1.00
48946;DHT22;34999;50.940;3.998;2024-03-06T14:56:44;17.30;99.90
48946;DHT22;34999;50.940;3.998;2024-03-06T14:59:13;17.20;99.90
48946;DHT22;34999;50.940;3.998;2024-03-06T15:01:41;17.10;99.90
48946;DHT22;34999;50.940;3.998;2024-03-06T15:04:12;17.00;1.00
48946;DHT22;34999;50.940;3.998;2024-03-06T15:06:41;17.10;29.50
48946;DHT22;34999;50.940;3.998;2024-03-06T15:09:09;17.20;22.20
48946;DHT22;34999;50.940;3.998;2024-03-06T15:11:40;16.90;1.00
48946;DHT22;34999;50.940;3.998;2024-03-06T15:14:08;16.40;1.00
48946;DHT22;34999;50.940;3.998;2024-03-06T15:16:37;16.20;99.90
48946;DHT22;34999;50.940;3.998;2024-03-06T15:19:07;16.10;1.00
48946;DHT22;34999;50.940;3.998;2024-03-06T15:21:36;15.60;99.90
48946;DHT22;34999;50.940;3.998;2024-03-06T15:24:05;15.00;1.00
48946;DHT22;34999;50.940;3.998;2024-03-06T15:26:33;15.10;1.00
48946;DHT22;34999;50.940;3.998;2024-03-06T15:29:04;15.20;1.00
48946;DHT22;34999;50.940;3.998;2024-03-06T15:31:33;15.10;99.90
48946;DHT22;34999;50.940;3.998;2024-03-06T15:34:02;14.90;1.00
48946;DHT22;34999;50.940;3.998;2024-03-06T15:36:30;15.00;99.90
48946;DHT22;34999;50.940;3.998;2024-03-06T15:39:00;15.10;1.00
48946;DHT22;34999;50.940;3.998;2024-03-06T15:41:29;14.90;1.00
48946;DHT22;34999;50.940;3.998;2024-03-06T15:43:57;15.00;99.90
48946;DHT22;34999;50.940;3.998;2024-03-06T15:46:26;15.10;25.40
48946;DHT22;34999;50.940;3.998;2024-03-06T15:48:54;14.80;99.90
48946;DHT22;34999;50.940;3.998;2024-03-06T15:51:23;14.60;1.00
48946;DHT22;34999;50.940;3.998;2024-03-06T15:53:51;14.50;19.20
48946;DHT22;34999;50.940;3.998;2024-03-06T15:56:21;14.60;99.90
48946;DHT22;34999;50.940;3.998;2024-03-06T15:58:50;14.60;1.00
48946;DHT22;34999;50.940;3.998;2024-03-06T16:01:18;14.50;1.00